Time;durP1;ratioP1;P1;durP2;ratioP2;P2;SDS_P1;SDS_P2;PMS_P1;PMS_P2;Temp;Humidity;BMP_temperature;BMP_pressure;BME280_temperature;BME280_humidity;BME280_pressure;Samples;Min_cycle;Max_cycle;Signal;HPM_P1;HPM_P2
2023/08/07 00:02:01;;;;;;;8.13;3.10;;;14.90;96.00;;;;;;5047270;28;20040;-68
2023/08/07 00:04:26;;;;;;;5.63;2.80;;;14.90;95.80;;;;;;5044003;28;20108;-68
2023/08/07 00:06:52;;;;;;;4.97;3.00;;;14.80;95.70;;;;;;5049252;28;20064;-67
2023/08/07 00:09:17;;;;;;;4.15;2.55;;;14.80;95.70;;;;;;5039129;28;20037;-68
2023/08/07 00:11:43;;;;;;;6.07;3.13;;;14.80;95.60;;;;;;5051474;28;20051;-68
2023/08/07 00:14:08;;;;;;;8.07;3.15;;;14.80;95.60;;;;;;5042567;28;20029;-68
2023/08/07 00:16:34;;;;;;;5.82;2.78;;;14.80;95.80;;;;;;5049975;28;20414;-68
2023/08/07 00:18:59;;;;;;;8.02;3.53;;;14.80;95.90;;;;;;5046197;28;20035;-68
2023/08/07 00:21:25;;;;;;;7.07;3.20;;;14.80;95.90;;;;;;5051247;28;20061;-68
2023/08/07 00:23:50;;;;;;;6.65;3.55;;;14.80;96.10;;;;;;5051762;28;20040;-68
2023/08/07 00:26:16;;;;;;;6.05;3.33;;;14.80;96.20;;;;;;5045708;28;20441;-68
2023/08/07 00:28:41;;;;;;;6.90;3.10;;;14.80;96.40;;;;;;5052244;28;20069;-68
2023/08/07 00:31:07;;;;;;;8.65;3.30;;;14.80;96.60;;;;;;5056578;28;20056;-68
2023/08/07 00:33:32;;;;;;;8.55;4.05;;;14.80;96.80;;;;;;5037949;28;20488;-68
2023/08/07 00:35:58;;;;;;;10.40;4.20;;;14.80;97.00;;;;;;5050333;28;20033;-67
2023/08/07 00:38:23;;;;;;;9.85;4.10;;;14.80;97.10;;;;;;5045444;28;20406;-67
2023/08/07 00:40:49;;;;;;;9.65;4.22;;;14.90;97.40;;;;;;5055502;28;20427;-68
2023/08/07 00:43:14;;;;;;;9.05;4.28;;;14.90;97.60;;;;;;5048314;28;20465;-67
2023/08/07 00:45:43;;;;;;;6.32;3.92;;;14.90;97.70;;;;;;5050294;28;20086;-68
2023/08/07 00:48:09;;;;;;;10.40;4.13;;;14.90;97.70;;;;;;5049433;28;20439;-68
2023/08/07 00:50:34;;;;;;;9.18;4.32;;;14.90;97.70;;;;;;5052353;28;20091;-68
2023/08/07 00:53:00;;;;;;;7.47;4.05;;;14.90;97.70;;;;;;5051386;28;20041;-68
2023/08/07 00:55:26;;;;;;;6.68;4.03;;;14.90;97.70;;;;;;5043993;28;20473;-68
2023/08/07 00:57:52;;;;;;;5.97;3.88;;;14.90;97.60;;;;;;5050559;28;20068;-68
2023/08/07 01:00:19;;;;;;;12.30;4.35;;;14.90;97.60;;;;;;5041519;28;20064;-68
2023/08/07 01:02:45;;;;;;;8.13;3.38;;;14.90;97.50;;;;;;5042160;28;20377;-68
2023/08/07 01:05:10;;;;;;;9.20;4.13;;;14.90;97.40;;;;;;5049811;28;20037;-68
2023/08/07 01:07:35;;;;;;;8.32;3.40;;;14.90;97.30;;;;;;5051991;28;20535;-68
2023/08/07 01:10:06;;;;;;;7.93;3.35;;;14.90;97.20;;;;;;5046637;28;20041;-68
2023/08/07 01:12:37;;;;;;;10.60;3.57;;;15.00;97.30;;;;;;5039196;28;20032;-67
2023/08/07 01:15:17;;;;;;;;;;;14.90;97.30;;;;;;5047122;28;20031;-68
2023/08/07 01:17:46;;;;;;;10.63;3.72;;;14.90;97.40;;;;;;5045010;28;19939;-68
2023/08/07 01:20:11;;;;;;;8.02;3.30;;;14.90;97.50;;;;;;5050278;28;20025;-67
2023/08/07 01:22:37;;;;;;;9.23;3.85;;;14.90;97.70;;;;;;5043493;28;20041;-68
2023/08/07 01:25:03;;;;;;;8.57;3.88;;;14.80;97.80;;;;;;5054873;28;20067;-68
2023/08/07 01:27:36;;;;;;;10.95;4.00;;;14.80;97.90;;;;;;5049209;28;20040;-68
2023/08/07 01:30:04;;;;;;;12.68;4.75;;;14.80;97.90;;;;;;5041085;28;20088;-68
2023/08/07 01:33:01;;;;;;;9.93;3.85;;;14.80;98.00;;;;;;5045443;28;20453;-68
2023/08/07 01:35:29;;;;;;;9.93;3.88;;;14.80;98.10;;;;;;5046648;28;20428;-67
2023/08/07 01:37:56;;;;;;;9.38;4.18;;;14.80;98.20;;;;;;5046982;28;20436;-68
2023/08/07 01:40:23;;;;;;;12.98;4.13;;;14.70;98.20;;;;;;5051057;28;20495;-68
2023/08/07 01:42:49;;;;;;;12.35;4.53;;;14.70;98.30;;;;;;5052104;28;20033;-67
2023/08/07 01:45:21;;;;;;;14.13;4.35;;;14.70;98.30;;;;;;5053775;28;20028;-68
2023/08/07 01:47:46;;;;;;;9.43;4.55;;;14.70;98.30;;;;;;5045609;28;20116;-68
2023/08/07 01:50:12;;;;;;;9.85;3.78;;;14.60;98.20;;;;;;5051350;28;20116;-67
2023/08/07 01:52:37;;;;;;;11.05;4.35;;;14.60;98.40;;;;;;5041505;28;20108;-67
2023/08/07 01:55:03;;;;;;;8.50;3.95;;;14.60;98.30;;;;;;5047671;28;20033;-68
2023/08/07 01:57:30;;;;;;;11.68;3.72;;;14.60;98.40;;;;;;5041543;28;20049;-68
2023/08/07 01:59:55;;;;;;;10.35;3.97;;;14.60;98.30;;;;;;5041331;28;20056;-67
2023/08/07 02:02:21;;;;;;;12.70;4.22;;;14.60;98.30;;;;;;5042078;28;20072;-68
2023/08/07 02:04:46;;;;;;;12.98;4.60;;;14.60;98.30;;;;;;5042334;28;20466;-68
2023/08/07 02:07:12;;;;;;;13.05;3.28;;;14.60;98.10;;;;;;5046711;28;20033;-67
2023/08/07 02:09:37;;;;;;;9.75;3.50;;;14.60;98.00;;;;;;5035479;28;20069;-68
2023/08/07 02:12:03;;;;;;;10.90;3.83;;;14.60;97.90;;;;;;5050786;28;20037;-68
2023/08/07 02:14:29;;;;;;;8.02;3.55;;;14.60;97.70;;;;;;5056598;28;20032;-67
2023/08/07 02:16:54;;;;;;;9.50;3.53;;;14.60;97.80;;;;;;5046000;28;20086;-68
2023/08/07 02:19:20;;;;;;;9.18;3.25;;;14.60;97.80;;;;;;5047198;28;20028;-68
2023/08/07 02:21:45;;;;;;;10.52;3.92;;;14.60;97.80;;;;;;5049987;28;20087;-68
2023/08/07 02:24:11;;;;;;;7.15;3.58;;;14.70;97.90;;;;;;5047924;28;20497;-68
2023/08/07 02:26:36;;;;;;;8.80;3.75;;;14.70;97.80;;;;;;5042928;28;20041;-68
2023/08/07 02:29:03;;;;;;;9.32;3.80;;;14.60;97.90;;;;;;5055346;28;20056;-68
2023/08/07 02:31:29;;;;;;;8.38;3.58;;;14.70;97.90;;;;;;5047058;28;20037;-68
2023/08/07 02:33:54;;;;;;;7.55;3.13;;;14.70;98.00;;;;;;5053623;28;20473;-68
2023/08/07 02:36:20;;;;;;;9.90;3.95;;;14.70;98.00;;;;;;5048488;28;20033;-68
2023/08/07 02:38:45;;;;;;;12.88;3.70;;;14.70;98.10;;;;;;5050444;28;20029;-68
2023/08/07 02:41:11;;;;;;;11.98;3.85;;;14.70;98.20;;;;;;5043928;28;20033;-68
2023/08/07 02:43:36;;;;;;;13.20;3.85;;;14.70;98.20;;;;;;5038339;28;20496;-67
2023/08/07 02:46:02;;;;;;;6.88;3.35;;;14.70;98.10;;;;;;5055973;28;20067;-68
2023/08/07 02:48:27;;;;;;;6.78;3.50;;;14.70;98.20;;;;;;5062727;28;20493;-68
2023/08/07 02:50:53;;;;;;;9.45;3.55;;;14.70;98.10;;;;;;5064494;28;20040;-68
2023/08/07 02:53:18;;;;;;;7.88;3.22;;;14.70;97.70;;;;;;5052472;28;20037;-68
2023/08/07 02:55:44;;;;;;;8.60;3.33;;;14.70;97.50;;;;;;5057808;28;20020;-68
2023/08/07 02:58:09;;;;;;;12.13;3.50;;;14.70;97.30;;;;;;5063730;28;20044;-68
2023/08/07 03:00:35;;;;;;;9.90;3.25;;;14.60;97.30;;;;;;5046357;28;20037;-67
2023/08/07 03:03:01;;;;;;;6.85;2.95;;;14.60;97.20;;;;;;5053735;28;20028;-67
2023/08/07 03:05:26;;;;;;;5.40;3.22;;;14.60;97.30;;;;;;5042851;28;20420;-68
2023/08/07 03:07:52;;;;;;;8.13;2.83;;;14.60;97.40;;;;;;5046229;28;20045;-68
2023/08/07 03:10:17;;;;;;;10.23;3.15;;;14.60;97.40;;;;;;5046898;28;20032;-67
2023/08/07 03:12:43;;;;;;;7.15;2.75;;;14.60;97.60;;;;;;5043095;28;20033;-67
2023/08/07 03:15:08;;;;;;;5.38;2.60;;;14.50;97.50;;;;;;5039707;28;20025;-68
2023/08/07 03:17:34;;;;;;;8.10;2.78;;;14.50;97.40;;;;;;5047121;28;20124;-67
2023/08/07 03:19:59;;;;;;;6.13;2.83;;;14.50;97.40;;;;;;5041535;28;20055;-67
2023/08/07 03:22:25;;;;;;;6.47;2.58;;;14.50;97.50;;;;;;5043985;28;20025;-68
2023/08/07 03:24:50;;;;;;;8.30;2.83;;;14.50;97.50;;;;;;5047476;28;20065;-68
2023/08/07 03:27:16;;;;;;;5.88;3.33;;;14.50;97.40;;;;;;5031990;28;20112;-68
2023/08/07 03:29:41;;;;;;;4.88;2.92;;;14.50;97.50;;;;;;5045700;28;20086;-67
2023/08/07 03:32:08;;;;;;;9.90;2.97;;;14.50;97.50;;;;;;5064213;28;20049;-68
2023/08/07 03:34:34;;;;;;;9.38;3.33;;;14.50;97.50;;;;;;5046446;28;20035;-68
2023/08/07 03:37:00;;;;;;;7.95;3.42;;;14.50;97.60;;;;;;5065658;28;20029;-68
2023/08/07 03:39:25;;;;;;;9.60;3.60;;;14.60;97.70;;;;;;5051206;28;20040;-68
2023/08/07 03:41:51;;;;;;;10.38;3.88;;;14.60;97.70;;;;;;5065496;28;20376;-67
2023/08/07 03:44:16;;;;;;;7.22;3.10;;;14.50;97.80;;;;;;5050736;28;20045;-68
2023/08/07 03:46:42;;;;;;;7.95;3.45;;;14.50;97.90;;;;;;5057575;28;20044;-68
2023/08/07 03:49:07;;;;;;;10.05;3.45;;;14.50;97.90;;;;;;5049855;28;20044;-67
2023/08/07 03:51:33;;;;;;;11.23;3.42;;;14.50;98.00;;;;;;5045194;28;20045;-68
2023/08/07 03:53:58;;;;;;;9.60;3.47;;;14.50;97.90;;;;;;5051170;28;20041;-68
2023/08/07 03:56:24;;;;;;;8.95;3.63;;;14.50;97.90;;;;;;5054316;28;20060;-67
2023/08/07 03:58:50;;;;;;;7.05;3.10;;;14.50;97.80;;;;;;5048582;28;20037;-68
2023/08/07 04:01:16;;;;;;;6.97;3.03;;;14.50;97.80;;;;;;5052435;28;20035;-68
2023/08/07 04:03:41;;;;;;;6.95;2.97;;;14.50;97.70;;;;;;5048811;28;20234;-67
2023/08/07 04:06:07;;;;;;;7.28;2.83;;;14.50;97.50;;;;;;5048683;28;20033;-68
2023/08/07 04:08:32;;;;;;;5.00;2.60;;;14.50;97.40;;;;;;5032444;28;20033;-68
2023/08/07 04:11:03;;;;;;;6.90;2.63;;;14.50;97.10;;;;;;5043446;28;20051;-68
2023/08/07 04:13:29;;;;;;;5.82;2.72;;;14.50;97.10;;;;;;5060081;28;20491;-68
2023/08/07 04:15:55;;;;;;;3.95;2.35;;;14.50;96.80;;;;;;5049912;28;20047;-68
2023/08/07 04:18:20;;;;;;;6.45;2.55;;;14.50;96.90;;;;;;5055824;28;20578;-68
2023/08/07 04:20:51;;;;;;;6.55;2.35;;;14.50;96.80;;;;;;5062742;28;20037;-68
2023/08/07 04:23:16;;;;;;;5.22;2.55;;;14.50;96.70;;;;;;5058459;28;20163;-68
2023/08/07 04:25:42;;;;;;;6.70;2.42;;;14.50;96.70;;;;;;5042068;28;20132;-68
2023/08/07 04:28:07;;;;;;;6.25;2.30;;;14.40;96.70;;;;;;5049082;28;20033;-66
2023/08/07 04:30:32;;;;;;;7.35;2.40;;;14.30;96.80;;;;;;5048289;28;20032;-66
2023/08/07 04:32:58;;;;;;;7.07;2.60;;;14.40;96.90;;;;;;5033738;28;20405;-65
2023/08/07 04:35:23;;;;;;;7.53;2.30;;;14.30;96.90;;;;;;5039112;28;20037;-65
2023/08/07 04:37:49;;;;;;;3.95;2.17;;;14.30;97.00;;;;;;5045780;28;20161;-66
2023/08/07 04:40:14;;;;;;;4.72;2.40;;;14.30;96.80;;;;;;5053434;28;20040;-66
2023/08/07 04:42:40;;;;;;;4.35;2.15;;;14.30;96.70;;;;;;5054074;28;20083;-67
2023/08/07 04:45:06;;;;;;;5.50;2.08;;;14.20;96.60;;;;;;5044721;28;20037;-66
2023/08/07 04:47:31;;;;;;;5.00;2.33;;;14.20;96.60;;;;;;5052573;28;20532;-65
2023/08/07 04:49:57;;;;;;;4.15;1.90;;;14.10;96.40;;;;;;5051642;28;20072;-66
2023/08/07 04:52:22;;;;;;;6.10;2.05;;;14.10;96.40;;;;;;5046317;28;20028;-65
2023/08/07 04:54:48;;;;;;;5.82;2.00;;;14.10;96.50;;;;;;5043534;28;20029;-66
2023/08/07 04:57:13;;;;;;;7.15;2.10;;;14.20;96.50;;;;;;5043062;28;20115;-66
2023/08/07 04:59:39;;;;;;;5.95;1.95;;;14.20;96.50;;;;;;5036103;28;20037;-66
2023/08/07 05:02:05;;;;;;;4.82;2.08;;;14.20;96.40;;;;;;5045120;28;20055;-65
2023/08/07 05:04:30;;;;;;;5.88;1.98;;;14.10;96.50;;;;;;5051734;28;20033;-67
2023/08/07 05:06:56;;;;;;;5.53;2.38;;;14.10;96.70;;;;;;5049180;28;20038;-66
2023/08/07 05:09:22;;;;;;;7.35;2.60;;;14.20;96.80;;;;;;5039517;28;20484;-66
2023/08/07 05:11:48;;;;;;;5.78;2.58;;;14.10;97.00;;;;;;5047375;28;22489;-66
2023/08/07 05:14:13;;;;;;;5.50;2.40;;;14.20;97.20;;;;;;5042617;28;20546;-65
2023/08/07 05:16:39;;;;;;;8.25;3.00;;;14.20;97.20;;;;;;5045295;28;20037;-66
2023/08/07 05:19:04;;;;;;;6.75;2.90;;;14.20;97.30;;;;;;5055983;28;20062;-66
2023/08/07 05:21:30;;;;;;;8.25;3.35;;;14.20;97.40;;;;;;5045522;28;20053;-65
2023/08/07 05:23:55;;;;;;;8.40;3.33;;;14.30;97.50;;;;;;5056622;28;20064;-66
2023/08/07 05:26:21;;;;;;;7.18;3.33;;;14.30;97.80;;;;;;5052695;28;20493;-66
2023/08/07 05:28:47;;;;;;;9.65;3.30;;;14.40;97.80;;;;;;5042755;28;20043;-67
2023/08/07 05:31:13;;;;;;;9.10;3.42;;;14.40;97.80;;;;;;5050975;28;20033;-66
2023/08/07 05:33:38;;;;;;;11.18;3.70;;;14.40;97.90;;;;;;5053119;28;20028;-66
2023/08/07 05:36:06;;;;;;;7.93;3.58;;;14.40;98.00;;;;;;5053672;28;20029;-65
2023/08/07 05:38:31;;;;;;;11.38;4.15;;;14.50;98.10;;;;;;5064691;28;20103;-66
2023/08/07 05:40:57;;;;;;;6.53;3.80;;;14.50;98.00;;;;;;5047295;28;20129;-66
2023/08/07 05:43:22;;;;;;;7.70;3.92;;;14.50;98.10;;;;;;5054439;28;20033;-65
2023/08/07 05:45:48;;;;;;;8.43;3.92;;;14.50;98.20;;;;;;5047418;28;20384;-65
2023/08/07 05:48:16;;;;;;;8.93;3.88;;;14.60;98.20;;;;;;5049246;28;20032;-65
2023/08/07 05:50:41;;;;;;;10.80;3.92;;;14.60;98.30;;;;;;5045799;28;20108;-66
2023/08/07 05:53:07;;;;;;;9.82;4.07;;;14.70;98.10;;;;;;5056207;28;20124;-66
2023/08/07 05:55:33;;;;;;;10.80;4.47;;;14.80;98.00;;;;;;5050327;28;20257;-65
2023/08/07 05:57:58;;;;;;;10.77;4.07;;;14.80;98.00;;;;;;5061737;28;20479;-66
2023/08/07 06:00:25;;;;;;;13.57;4.18;;;14.80;97.90;;;;;;5052498;28;20041;-66
2023/08/07 06:02:50;;;;;;;10.30;4.15;;;15.00;97.80;;;;;;5056306;28;20028;-65
2023/08/07 06:05:16;;;;;;;9.75;3.67;;;15.00;97.60;;;;;;5053228;28;20025;-66
2023/08/07 06:07:41;;;;;;;9.43;3.40;;;15.10;97.50;;;;;;5050485;28;20124;-65
2023/08/07 06:10:07;;;;;;;8.18;3.65;;;15.20;97.10;;;;;;5047350;28;20103;-65
2023/08/07 06:12:33;;;;;;;11.68;3.45;;;15.20;96.80;;;;;;5051342;28;20068;-65
2023/08/07 06:14:58;;;;;;;7.88;3.03;;;15.30;96.80;;;;;;5047057;28;20033;-66
2023/08/07 06:17:24;;;;;;;12.45;3.00;;;15.40;96.40;;;;;;5041494;28;20073;-66
2023/08/07 06:19:49;;;;;;;10.23;2.90;;;15.50;96.50;;;;;;5039346;28;20071;-66
2023/08/07 06:22:15;;;;;;;8.23;2.80;;;15.50;95.90;;;;;;5042069;28;20503;-65
2023/08/07 06:24:40;;;;;;;9.88;2.97;;;15.60;95.90;;;;;;5044118;28;20408;-66
2023/08/07 06:27:05;;;;;;;11.18;2.90;;;15.60;95.70;;;;;;5044395;28;20029;-66
2023/08/07 06:29:31;;;;;;;7.88;2.10;;;15.70;95.50;;;;;;5040499;28;20116;-65
2023/08/07 06:31:56;;;;;;;7.63;2.50;;;15.70;93.90;;;;;;5053598;28;20063;-66
2023/08/07 06:34:22;;;;;;;7.97;2.63;;;15.80;94.30;;;;;;5049063;28;20380;-65
2023/08/07 06:36:47;;;;;;;8.30;2.20;;;15.90;94.10;;;;;;5048917;28;20241;-66
2023/08/07 06:39:13;;;;;;;7.68;2.25;;;16.00;93.70;;;;;;5066011;28;20033;-66
2023/08/07 06:41:39;;;;;;;11.63;2.28;;;16.00;93.70;;;;;;5041596;28;20052;-67
2023/08/07 06:44:04;;;;;;;10.05;2.50;;;16.00;93.50;;;;;;5049733;28;20233;-65
2023/08/07 06:46:30;;;;;;;10.13;2.25;;;16.10;93.50;;;;;;5045476;28;20036;-65
2023/08/07 06:48:55;;;;;;;10.80;2.17;;;16.00;93.20;;;;;;5046573;28;20041;-65
2023/08/07 06:51:21;;;;;;;7.88;2.00;;;16.10;92.90;;;;;;5041048;28;20089;-65
2023/08/07 06:53:46;;;;;;;7.10;1.98;;;16.10;92.90;;;;;;5049539;28;20055;-67
2023/08/07 06:56:12;;;;;;;10.90;2.20;;;16.10;92.40;;;;;;5050677;28;20033;-67
2023/08/07 06:58:37;;;;;;;13.23;2.40;;;16.30;92.40;;;;;;5049396;28;20037;-67
2023/08/07 07:01:03;;;;;;;11.70;2.45;;;16.30;92.00;;;;;;5054275;28;20392;-66
2023/08/07 07:03:28;;;;;;;7.82;2.15;;;16.50;91.60;;;;;;5049599;28;20065;-66
2023/08/07 07:05:55;;;;;;;7.90;1.77;;;16.40;90.80;;;;;;5050270;28;20039;-66
2023/08/07 07:08:23;;;;;;;10.98;2.03;;;16.50;90.90;;;;;;5043613;28;20056;-66
2023/08/07 07:10:48;;;;;;;11.02;2.38;;;16.50;90.50;;;;;;5035998;28;20029;-68
2023/08/07 07:13:14;;;;;;;8.88;2.28;;;16.60;90.60;;;;;;5038161;28;20048;-67
2023/08/07 07:15:39;;;;;;;8.88;2.38;;;16.70;90.10;;;;;;5045211;28;20461;-66
2023/08/07 07:18:05;;;;;;;9.00;1.85;;;16.70;89.50;;;;;;5049429;28;20029;-66
2023/08/07 07:20:30;;;;;;;13.73;2.28;;;16.60;89.50;;;;;;5056489;28;20032;-66
2023/08/07 07:22:56;;;;;;;8.90;2.13;;;16.70;90.20;;;;;;5054677;28;20041;-66
2023/08/07 07:25:21;;;;;;;9.60;2.17;;;16.60;90.70;;;;;;5060170;28;20534;-66
2023/08/07 07:27:47;;;;;;;8.05;2.20;;;16.40;90.70;;;;;;5042359;28;20033;-67
2023/08/07 07:30:12;;;;;;;11.68;2.15;;;16.20;90.50;;;;;;5038664;28;20381;-66
2023/08/07 07:32:38;;;;;;;10.32;2.70;;;16.30;91.10;;;;;;5037556;28;20033;-66
2023/08/07 07:35:04;;;;;;;10.13;2.58;;;16.20;89.70;;;;;;5047980;28;20036;-66
2023/08/07 07:37:31;;;;;;;10.55;2.80;;;16.20;89.90;;;;;;5048300;28;20044;-66
2023/08/07 07:39:56;;;;;;;13.50;2.53;;;16.20;88.30;;;;;;5049881;28;20492;-66
2023/08/07 07:42:22;;;;;;;10.68;2.03;;;16.30;86.40;;;;;;5050551;28;20556;-66
2023/08/07 07:44:47;;;;;;;14.07;2.42;;;16.60;84.50;;;;;;5043732;28;20473;-67
2023/08/07 07:47:13;;;;;;;10.02;2.40;;;16.70;81.30;;;;;;5047390;28;20024;-67
2023/08/07 07:49:38;;;;;;;11.95;2.40;;;16.80;81.50;;;;;;5041800;28;20060;-66
2023/08/07 07:52:05;;;;;;;12.68;3.10;;;16.80;79.70;;;;;;5050006;28;20033;-66
2023/08/07 07:54:30;;;;;;;7.93;2.58;;;16.90;81.20;;;;;;5043784;28;20024;-67
2023/08/07 07:56:56;;;;;;;10.75;2.60;;;16.90;79.80;;;;;;5052401;28;20557;-66
2023/08/07 07:59:21;;;;;;;12.48;3.10;;;17.00;80.20;;;;;;5045499;28;20383;-66
2023/08/07 08:01:47;;;;;;;10.95;2.20;;;17.00;79.90;;;;;;5045506;28;20372;-67
2023/08/07 08:04:12;;;;;;;12.45;2.72;;;17.30;80.10;;;;;;5048705;28;20386;-66
2023/08/07 08:06:39;;;;;;;8.80;2.42;;;17.50;80.10;;;;;;5039600;28;20048;-67
2023/08/07 08:09:05;;;;;;;13.93;2.70;;;17.50;79.10;;;;;;5040311;28;20037;-67
2023/08/07 08:11:31;;;;;;;12.50;2.60;;;17.50;79.20;;;;;;5037568;28;20033;-66
2023/08/07 08:13:56;;;;;;;13.10;3.33;;;17.50;79.60;;;;;;5043817;28;20037;-67
2023/08/07 08:16:22;;;;;;;8.02;2.47;;;17.50;79.90;;;;;;5044274;28;20388;-66
2023/08/07 08:18:47;;;;;;;11.05;2.58;;;17.50;78.50;;;;;;5046017;28;20109;-67
2023/08/07 08:21:13;;;;;;;11.60;2.90;;;17.60;78.80;;;;;;5041901;28;20102;-66
2023/08/07 08:23:38;;;;;;;14.00;2.90;;;17.70;78.10;;;;;;5039783;28;20481;-68
2023/08/07 08:26:04;;;;;;;12.65;2.67;;;17.70;78.70;;;;;;5039370;28;20048;-66
2023/08/07 08:28:30;;;;;;;15.00;3.00;;;17.80;78.80;;;;;;5037117;28;20033;-67
2023/08/07 08:30:55;;;;;;;9.75;2.83;;;17.60;78.70;;;;;;5025753;28;20048;-67
2023/08/07 08:33:21;;;;;;;9.68;2.78;;;17.40;78.90;;;;;;5032830;28;20045;-69
2023/08/07 08:35:46;;;;;;;12.55;2.50;;;17.50;78.80;;;;;;5044445;28;20473;-70
2023/08/07 08:38:12;;;;;;;13.10;2.28;;;17.50;78.30;;;;;;5047185;28;20072;-67
2023/08/07 08:40:39;;;;;;;12.40;2.30;;;17.50;78.70;;;;;;5041388;28;20032;-67
2023/08/07 08:43:05;;;;;;;14.57;3.40;;;17.10;79.40;;;;;;5051943;28;20538;-66
2023/08/07 08:45:37;;;;;;;10.82;2.53;;;17.10;79.40;;;;;;5049813;28;20094;-66
2023/08/07 08:48:04;;;;;;;8.18;1.85;;;17.00;78.80;;;;;;5052956;28;20100;-66
2023/08/07 08:50:31;;;;;;;8.95;2.03;;;16.90;77.00;;;;;;5065234;28;20396;-67
2023/08/07 08:52:57;;;;;;;12.57;2.65;;;16.90;77.80;;;;;;5053524;28;20045;-66
2023/08/07 08:55:23;;;;;;;13.30;2.65;;;16.70;76.80;;;;;;5056237;28;20420;-66
2023/08/07 08:57:53;;;;;;;11.13;2.33;;;16.80;77.40;;;;;;5050321;28;20040;-66
2023/08/07 09:00:22;;;;;;;12.32;2.58;;;16.90;76.90;;;;;;5052670;28;20029;-67
2023/08/07 09:02:50;;;;;;;12.40;2.55;;;16.80;75.50;;;;;;5058688;28;20029;-66
2023/08/07 09:05:17;;;;;;;8.60;2.25;;;17.00;76.30;;;;;;5062762;28;20059;-67
2023/08/07 09:07:46;;;;;;;8.82;2.00;;;17.20;75.70;;;;;;5057696;28;20032;-66
2023/08/07 09:10:12;;;;;;;10.90;2.13;;;17.30;75.20;;;;;;5051701;28;20484;-66
2023/08/07 09:12:41;;;;;;;12.10;2.40;;;17.50;74.30;;;;;;5055699;28;20044;-67
2023/08/07 09:15:08;;;;;;;14.02;2.38;;;17.50;74.10;;;;;;5056141;28;20098;-66
2023/08/07 09:17:41;;;;;;;7.97;2.17;;;17.60;75.00;;;;;;5054937;28;20033;-66
2023/08/07 09:20:11;;;;;;;9.27;2.13;;;17.40;73.70;;;;;;5058216;28;20056;-66
2023/08/07 09:22:37;;;;;;;10.73;2.13;;;17.50;72.90;;;;;;5051443;28;20120;-66
2023/08/07 09:25:03;;;;;;;11.48;2.47;;;17.30;73.00;;;;;;5050939;28;20046;-66
2023/08/07 09:27:30;;;;;;;11.35;2.47;;;17.20;72.10;;;;;;5052638;28;20564;-67
2023/08/07 09:29:56;;;;;;;8.35;2.00;;;17.50;72.00;;;;;;5052552;28;20116;-66
2023/08/07 09:32:23;;;;;;;13.77;2.10;;;17.80;71.30;;;;;;5038628;28;20109;-66
2023/08/07 09:34:50;;;;;;;7.50;2.20;;;17.60;70.40;;;;;;5046105;28;20020;-66
2023/08/07 09:37:15;;;;;;;12.30;2.17;;;17.50;70.40;;;;;;5065273;28;20068;-65
2023/08/07 09:39:41;;;;;;;12.50;2.42;;;17.10;70.50;;;;;;5061939;28;20060;-66
2023/08/07 09:42:14;;;;;;;7.68;1.80;;;17.00;71.80;;;;;;5057249;28;20124;-67
2023/08/07 09:44:40;;;;;;;10.95;2.38;;;17.00;72.50;;;;;;5057719;28;20017;-66
2023/08/07 09:47:16;;;;;;;13.15;1.83;;;16.70;73.10;;;;;;5059444;28;20131;-66
2023/08/07 09:49:43;;;;;;;9.15;2.20;;;16.80;72.00;;;;;;5052881;28;20081;-69
2023/08/07 09:52:10;;;;;;;12.73;2.28;;;16.90;71.70;;;;;;5062211;28;20086;-66
2023/08/07 09:54:36;;;;;;;11.82;2.53;;;17.00;71.30;;;;;;5061282;28;20111;-66
2023/08/07 09:57:03;;;;;;;7.88;2.17;;;17.10;70.60;;;;;;5047740;28;20090;-66
2023/08/07 09:59:29;;;;;;;7.60;1.83;;;17.50;70.30;;;;;;5050456;28;20381;-66
2023/08/07 10:01:55;;;;;;;10.00;2.03;;;17.60;69.40;;;;;;5053802;28;20457;-66
2023/08/07 10:04:24;;;;;;;9.55;2.45;;;17.70;69.70;;;;;;5056906;28;20044;-67
2023/08/07 10:06:51;;;;;;;9.70;1.90;;;17.90;69.70;;;;;;5047214;28;20028;-66
2023/08/07 10:09:16;;;;;;;11.43;2.10;;;17.80;69.30;;;;;;5054018;28;20051;-66
2023/08/07 10:11:42;;;;;;;12.02;2.45;;;17.50;70.70;;;;;;5052165;28;20033;-66
2023/08/07 10:14:09;;;;;;;10.23;2.25;;;17.50;71.10;;;;;;5059190;28;20043;-67
2023/08/07 10:16:39;;;;;;;13.32;2.47;;;17.50;71.60;;;;;;5057381;28;20061;-66
2023/08/07 10:19:05;;;;;;;14.73;2.43;;;17.60;69.30;;;;;;5060088;28;20047;-66
2023/08/07 10:21:31;;;;;;;14.20;2.78;;;17.50;68.20;;;;;;5056589;28;20291;-66
2023/08/07 10:23:59;;;;;;;10.73;1.77;;;17.60;69.50;;;;;;5049870;28;20446;-67
2023/08/07 10:26:26;;;;;;;7.53;1.90;;;18.10;68.50;;;;;;5044685;28;20037;-66
2023/08/07 10:28:53;;;;;;;8.23;1.83;;;18.10;66.30;;;;;;5046620;28;20527;-66
2023/08/07 10:31:22;;;;;;;6.20;1.85;;;18.60;66.20;;;;;;5056106;28;20040;-66
2023/08/07 10:33:47;;;;;;;7.10;2.10;;;18.50;66.60;;;;;;5046771;28;20082;-67
2023/08/07 10:36:16;;;;;;;10.50;2.47;;;18.10;67.20;;;;;;5049658;28;20064;-66
2023/08/07 10:38:42;;;;;;;14.02;1.98;;;18.30;68.60;;;;;;5044847;28;20185;-67
2023/08/07 10:41:14;;;;;;;11.38;2.50;;;18.50;67.90;;;;;;5038565;28;20159;-67
2023/08/07 10:43:42;;;;;;;8.70;2.20;;;18.40;68.60;;;;;;5041797;28;20025;-67
2023/08/07 10:46:23;;;;;;;9.02;2.25;;;18.50;68.90;;;;;;5047575;28;20491;-66
2023/08/07 10:48:57;;;;;;;11.25;2.20;;;18.80;68.80;;;;;;5053999;28;20499;-67
2023/08/07 10:51:31;;;;;;;12.68;2.15;;;18.80;68.20;;;;;;5038247;28;20030;-66
2023/08/07 10:53:56;;;;;;;9.98;2.28;;;18.50;68.80;;;;;;5044022;28;20473;-66
2023/08/07 10:56:38;;;;;;;15.45;2.38;;;17.90;70.20;;;;;;5050587;28;20039;-66
2023/08/07 10:59:13;;;;;;;9.57;1.98;;;17.50;71.10;;;;;;5044415;28;20450;-66
2023/08/07 11:01:38;;;;;;;11.52;2.60;;;17.10;70.50;;;;;;5042152;28;20083;-68
2023/08/07 11:04:09;;;;;;;7.82;1.73;;;17.40;70.40;;;;;;5043283;28;20045;-66
2023/08/07 11:06:35;;;;;;;11.52;2.22;;;17.70;69.60;;;;;;5033063;28;20063;-66
2023/08/07 11:09:05;;;;;;;10.25;2.55;;;18.10;68.20;;;;;;5036388;28;20386;-66
2023/08/07 11:11:47;;;;;;;7.87;2.27;;;18.50;67.30;;;;;;5046073;28;20043;-67
2023/08/07 11:14:17;;;;;;;8.15;1.83;;;18.80;67.80;;;;;;5055378;28;20279;-66
2023/08/07 11:16:44;;;;;;;13.43;2.80;;;19.00;66.80;;;;;;5059679;28;20027;-66
2023/08/07 11:19:12;;;;;;;8.18;1.75;;;19.10;66.60;;;;;;5070388;28;20029;-66
2023/08/07 11:21:38;;;;;;;9.88;1.90;;;19.80;65.70;;;;;;5066115;28;20020;-67
2023/08/07 11:24:03;;;;;;;8.43;2.25;;;19.40;65.10;;;;;;5053347;28;20036;-66
2023/08/07 11:26:29;;;;;;;8.43;2.15;;;18.90;66.30;;;;;;5053502;28;20029;-66
2023/08/07 11:28:55;;;;;;;8.00;1.80;;;18.50;68.50;;;;;;5056226;28;20465;-66
2023/08/07 11:31:21;;;;;;;10.32;2.10;;;18.30;68.10;;;;;;5040991;28;20039;-66
2023/08/07 11:33:49;;;;;;;8.60;1.80;;;18.30;67.50;;;;;;5066275;28;20033;-66
2023/08/07 11:36:15;;;;;;;8.07;1.70;;;18.10;66.50;;;;;;5059246;28;20022;-66
2023/08/07 11:38:45;;;;;;;7.55;1.77;;;18.40;66.80;;;;;;5058217;28;20040;-67
2023/08/07 11:41:15;;;;;;;7.00;1.95;;;18.40;66.30;;;;;;5048723;28;20033;-66
2023/08/07 11:43:41;;;;;;;6.28;1.60;;;18.10;66.50;;;;;;5048394;28;20029;-67
2023/08/07 11:46:09;;;;;;;5.57;1.77;;;18.00;68.30;;;;;;5046194;28;20059;-67
2023/08/07 11:48:36;;;;;;;8.88;1.85;;;17.80;69.20;;;;;;5042972;28;20405;-66
2023/08/07 11:51:02;;;;;;;9.68;1.90;;;18.00;69.60;;;;;;5052144;28;20037;-66
2023/08/07 11:53:30;;;;;;;7.00;1.77;;;18.30;68.40;;;;;;5055306;28;20028;-66
2023/08/07 11:56:00;;;;;;;7.97;1.83;;;18.80;67.20;;;;;;5044036;28;20029;-67
2023/08/07 11:58:27;;;;;;;9.35;2.25;;;19.00;66.50;;;;;;5046343;28;20040;-66
2023/08/07 12:00:54;;;;;;;8.20;1.80;;;19.50;66.10;;;;;;5047983;28;20466;-66
2023/08/07 12:03:28;;;;;;;10.70;2.22;;;19.30;65.50;;;;;;5060032;28;20419;-66
2023/08/07 12:05:55;;;;;;;10.38;2.17;;;19.20;67.20;;;;;;5048568;28;20029;-67
2023/08/07 12:08:21;;;;;;;5.93;1.58;;;19.60;66.80;;;;;;5044409;28;20029;-67
2023/08/07 12:11:07;;;;;;;8.45;1.77;;;18.90;65.80;;;;;;5049201;28;20035;-67
2023/08/07 12:13:35;;;;;;;7.60;1.98;;;18.60;64.70;;;;;;5039896;28;20041;-66
2023/08/07 12:16:01;;;;;;;7.25;1.80;;;18.10;66.40;;;;;;5042514;28;20028;-66
2023/08/07 12:18:27;;;;;;;7.50;2.05;;;18.10;66.10;;;;;;5040991;28;20530;-67
2023/08/07 12:20:58;;;;;;;4.85;1.77;;;18.20;65.80;;;;;;5048010;28;20033;-67
2023/08/07 12:23:24;;;;;;;;;;;18.50;65.00;;;;;;5046886;28;20381;-66
2023/08/07 12:25:49;;;;;;;8.93;2.38;;;18.60;64.90;;;;;;5037431;28;20012;-66
2023/08/07 12:28:17;;;;;;;8.32;2.33;;;19.00;65.10;;;;;;5049602;28;20035;-67
2023/08/07 12:30:45;;;;;;;4.72;1.50;;;19.00;65.80;;;;;;5051480;28;20033;-66
2023/08/07 12:33:11;;;;;;;9.82;1.95;;;19.20;63.70;;;;;;5050076;28;20065;-66
2023/08/07 12:35:36;;;;;;;7.82;2.00;;;19.10;60.90;;;;;;5040137;28;20088;-67
2023/08/07 12:38:02;;;;;;;8.95;2.17;;;19.40;60.40;;;;;;5034419;28;20037;-67
2023/08/07 12:40:28;;;;;;;9.30;1.50;;;19.80;58.60;;;;;;5045961;28;20350;-67